Onslow, Iowa
Current Conditions -  °F | °C
As of 2:55 AM on Wednesday 28 Jan 2015 (Local Time) from KMXO Reporting Station
Haze Haze  
Wind Chill: 15°   Ceiling: 700
Heat Index: 27°   Visibility: 6mi
Dew Point: 25°   Wind: 14mph
Humidity: 93%   Direction: 150°SSE
Pressure: 30.2"   Gusts: NA
Location:  42.11°N, 91.02°W
Report Text: KMXO 280855Z AUTO 15012KT 6SM BR OVC007 M03/M04 A3020 RMK AO2
Loading
Personal Weather Stations






























Interactive Weather Map New forecast layout! Learn more

10-Day Weather Forecast

Advertisements
Track Severe Weather on mobile